createdAt,value
2022-09-12T00:00:25.498Z,85.40
2022-09-12T00:02:56.501Z,79.60
2022-09-12T00:05:26.055Z,85.30
2022-09-12T00:07:56.318Z,83.20
2022-09-12T00:10:25.460Z,81.50
2022-09-12T00:12:55.085Z,90.90
2022-09-12T00:15:24.383Z,86.20
2022-09-12T00:17:53.845Z,88.00
2022-09-12T00:20:23.211Z,87.10
2022-09-12T00:22:52.368Z,90.30
2022-09-12T00:25:21.454Z,88.30
2022-09-12T00:27:50.697Z,89.50
2022-09-12T00:30:20.279Z,95.60
2022-09-12T00:32:50.405Z,96.00
2022-09-12T00:35:19.708Z,93.30
2022-09-12T00:37:48.732Z,90.30
2022-09-12T00:40:18.708Z,90.00
2022-09-12T00:42:50.861Z,97.60
2022-09-12T00:45:30.722Z,92.20
2022-09-12T00:48:05.691Z,96.10
2022-09-12T00:50:35.499Z,92.40
2022-09-12T00:53:10.170Z,92.50
2022-09-12T00:55:50.206Z,99.70
2022-09-12T00:58:35.784Z,93.80
2022-09-12T01:01:05.288Z,97.70
2022-09-12T01:03:34.870Z,89.70
2022-09-12T01:06:21.022Z,93.40
2022-09-12T01:08:52.360Z,92.60
2022-09-12T01:11:23.569Z,95.70
2022-09-12T01:13:53.389Z,96.60
2022-09-12T01:16:22.820Z,102.30
2022-09-12T01:19:06.256Z,97.20
2022-09-12T01:21:59.357Z,95.00
2022-09-12T01:24:48.022Z,95.20
2022-09-12T01:27:44.440Z,95.90
2022-09-12T01:31:07.977Z,91.80
2022-09-12T01:33:52.060Z,93.10
2022-09-12T01:37:18.237Z,95.00
2022-09-12T01:40:10.139Z,97.30
2022-09-12T01:43:04.369Z,92.00
2022-09-12T01:46:04.650Z,95.50
2022-09-12T01:48:46.493Z,99.60
2022-09-12T01:51:42.804Z,99.00
2022-09-12T01:54:52.169Z,96.50
2022-09-12T01:57:34.739Z,99.10
2022-09-12T02:00:12.993Z,101.50
2022-09-12T02:03:16.685Z,101.90
2022-09-12T02:06:14.406Z,100.90
2022-09-12T02:08:57.593Z,100.60
2022-09-12T02:11:27.378Z,98.40
2022-09-12T02:14:24.350Z,102.20
2022-09-12T02:17:18.932Z,104.10
2022-09-12T02:20:44.366Z,101.10
2022-09-12T02:23:27.987Z,104.30
2022-09-12T02:26:04.709Z,103.80
2022-09-12T02:28:39.578Z,105.90
2022-09-12T02:31:23.614Z,105.90
2022-09-12T02:34:41.698Z,107.00
2022-09-12T02:37:57.955Z,105.20
2022-09-12T02:40:28.505Z,99.30
2022-09-12T02:42:58.343Z,107.80
2022-09-12T02:45:28.849Z,99.40
2022-09-12T02:48:36.891Z,101.90
2022-09-12T02:51:06.351Z,96.20
2022-09-12T02:53:37.064Z,100.20
2022-09-12T02:56:13.564Z,97.60
2022-09-12T02:58:43.798Z,91.70
2022-09-12T03:01:41.140Z,94.70
2022-09-12T03:05:05.212Z,90.00
2022-09-12T03:08:12.269Z,93.60
2022-09-12T03:11:11.605Z,93.60
2022-09-12T03:14:03.116Z,90.60
2022-09-12T03:16:59.638Z,89.40
2022-09-12T03:20:10.019Z,91.80
2022-09-12T03:23:11.891Z,95.70
2022-09-12T03:25:52.021Z,96.60
2022-09-12T03:28:24.759Z,90.70
2022-09-12T03:30:55.750Z,95.10
2022-09-12T03:33:27.403Z,94.40
2022-09-12T03:35:58.048Z,89.10
2022-09-12T03:38:27.130Z,97.00
2022-09-12T03:40:56.552Z,92.00
2022-09-12T03:43:25.806Z,91.40
2022-09-12T03:45:55.017Z,97.90
2022-09-12T03:48:24.228Z,96.70
2022-09-12T03:50:53.589Z,95.30
2022-09-12T03:53:22.785Z,96.60
2022-09-12T03:55:51.985Z,94.50
2022-09-12T03:58:22.313Z,94.00
2022-09-12T04:00:51.844Z,96.10
2022-09-12T04:03:21.247Z,92.50
2022-09-12T04:05:50.478Z,95.10
2022-09-12T04:08:19.813Z,94.70
2022-09-12T04:10:49.200Z,94.90
2022-09-12T04:13:18.613Z,93.90
2022-09-12T04:15:59.628Z,91.60
2022-09-12T04:18:30.198Z,91.80
2022-09-12T04:21:00.107Z,94.00
2022-09-12T04:23:29.625Z,93.20
2022-09-12T04:26:01.955Z,92.60
2022-09-12T04:28:31.766Z,97.30
2022-09-12T04:31:08.422Z,96.20
2022-09-12T04:33:38.590Z,94.10
2022-09-12T04:36:11.416Z,94.00
2022-09-12T04:38:40.596Z,91.20
2022-09-12T04:41:19.180Z,88.90
2022-09-12T04:43:52.901Z,88.30
2022-09-12T04:46:22.847Z,92.70
2022-09-12T04:48:56.698Z,94.70
2022-09-12T04:51:34.791Z,89.70
2022-09-12T04:54:13.270Z,90.70
2022-09-12T04:56:45.217Z,89.50
2022-09-12T04:59:17.513Z,89.10
2022-09-12T05:01:46.909Z,86.30
2022-09-12T05:04:16.303Z,87.40
2022-09-12T05:06:48.030Z,84.50
2022-09-12T05:09:17.580Z,88.10
2022-09-12T05:12:03.862Z,89.60
2022-09-12T05:14:35.234Z,90.20
2022-09-12T05:17:07.005Z,89.50
2022-09-12T05:19:36.513Z,86.00
2022-09-12T05:22:07.791Z,90.90
2022-09-12T05:24:39.045Z,88.90
2022-09-12T05:27:08.546Z,87.20
2022-09-12T05:29:37.995Z,88.30
2022-09-12T05:32:10.771Z,89.40
2022-09-12T05:34:40.784Z,89.40
2022-09-12T05:37:10.930Z,84.40
2022-09-12T05:39:40.243Z,89.10
2022-09-12T05:42:10.192Z,92.10
2022-09-12T05:44:39.436Z,87.80
2022-09-12T05:47:08.942Z,82.40
2022-09-12T05:49:39.071Z,85.50
2022-09-12T05:52:08.481Z,87.00
2022-09-12T05:54:37.852Z,83.10
2022-09-12T05:57:07.458Z,87.10
2022-09-12T05:59:36.951Z,86.60
2022-09-12T06:02:06.311Z,86.50
2022-09-12T06:04:35.618Z,87.00
2022-09-12T06:07:05.786Z,87.00
2022-09-12T06:09:35.135Z,85.30
2022-09-12T06:12:04.995Z,83.50
2022-09-12T06:14:34.436Z,88.00
2022-09-12T06:17:03.589Z,85.70
2022-09-12T06:19:33.112Z,88.80
2022-09-12T06:22:02.712Z,88.60
2022-09-12T06:24:31.972Z,80.60
2022-09-12T06:27:01.047Z,84.50
2022-09-12T06:29:30.874Z,83.60
2022-09-12T06:32:00.415Z,86.10
2022-09-12T06:34:29.479Z,85.10
2022-09-12T06:36:59.198Z,83.10
2022-09-12T06:39:28.563Z,84.60
2022-09-12T06:41:58.034Z,89.20
2022-09-12T06:44:27.149Z,80.10
2022-09-12T06:46:56.530Z,88.60
2022-09-12T06:49:25.905Z,82.50
2022-09-12T06:51:55.175Z,85.40
2022-09-12T06:54:24.766Z,86.10
2022-09-12T06:56:57.122Z,85.80
2022-09-12T06:59:26.870Z,82.40
2022-09-12T07:01:56.079Z,82.00
2022-09-12T07:04:25.364Z,84.60
2022-09-12T07:06:54.509Z,85.50
2022-09-12T07:09:24.113Z,85.40
2022-09-12T07:11:53.449Z,84.40
2022-09-12T07:14:22.858Z,83.80
2022-09-12T07:16:52.009Z,82.40
2022-09-12T07:19:21.266Z,86.40
2022-09-12T07:21:54.206Z,87.80
2022-09-12T07:24:25.901Z,81.70
2022-09-12T07:26:55.125Z,82.40
2022-09-12T07:29:39.546Z,83.80
2022-09-12T07:32:09.183Z,83.50
2022-09-12T07:34:38.344Z,86.50
2022-09-12T07:37:07.599Z,84.90
2022-09-12T07:39:36.759Z,87.80
2022-09-12T07:42:06.181Z,83.70
2022-09-12T07:44:35.336Z,82.80
2022-09-12T07:47:04.786Z,82.30
2022-09-12T07:49:34.264Z,86.50
2022-09-12T07:52:04.014Z,85.60
2022-09-12T07:54:34.383Z,83.50
2022-09-12T07:57:03.350Z,92.30
2022-09-12T07:59:51.374Z,86.00
2022-09-12T08:02:22.391Z,90.10
2022-09-12T08:04:52.463Z,84.30
2022-09-12T08:07:21.702Z,87.50
2022-09-12T08:09:51.053Z,84.50
2022-09-12T08:12:21.421Z,86.20
2022-09-12T08:14:50.673Z,84.20
2022-09-12T08:17:19.880Z,83.10
2022-09-12T08:19:49.374Z,88.00
2022-09-12T08:22:22.913Z,85.90
2022-09-12T08:24:52.613Z,83.20
2022-09-12T08:27:21.760Z,84.20
2022-09-12T08:29:50.770Z,84.40
2022-09-12T08:32:20.152Z,84.30
2022-09-12T08:34:49.403Z,90.30
2022-09-12T08:37:18.537Z,92.10
2022-09-12T08:39:47.793Z,86.90
2022-09-12T08:42:52.179Z,88.90
2022-09-12T08:45:47.628Z,91.90
2022-09-12T08:48:16.979Z,82.70
2022-09-12T08:50:49.993Z,84.60
2022-09-12T08:53:26.865Z,84.80
2022-09-12T08:56:01.186Z,82.90
2022-09-12T08:58:32.541Z,85.80
2022-09-12T09:01:10.957Z,80.90
2022-09-12T09:04:14.145Z,84.30
2022-09-12T09:07:08.455Z,79.50
2022-09-12T09:10:02.968Z,82.60
2022-09-12T09:13:01.989Z,83.50
2022-09-12T09:16:31.808Z,86.60
2022-09-12T09:19:09.638Z,83.10
2022-09-12T09:22:17.330Z,83.20
2022-09-12T09:25:02.338Z,82.70
2022-09-12T09:27:50.559Z,84.70
2022-09-12T09:30:23.601Z,84.60
2022-09-12T09:33:04.440Z,82.30
2022-09-12T09:36:00.166Z,82.00
2022-09-12T09:39:03.986Z,86.90
2022-09-12T09:41:39.304Z,87.10
2022-09-12T09:46:37.652Z,87.40
2022-09-12T09:49:09.249Z,85.80
2022-09-12T09:51:41.906Z,82.90
2022-09-12T09:54:22.804Z,86.10
2022-09-12T09:56:52.445Z,82.80
2022-09-12T09:59:35.594Z,84.90
2022-09-12T10:02:24.169Z,86.90
2022-09-12T10:05:00.758Z,82.90
2022-09-12T10:07:30.137Z,84.00
2022-09-12T10:10:24.214Z,85.60
2022-09-12T10:13:11.186Z,85.80
2022-09-12T10:15:40.441Z,84.40
2022-09-12T10:18:09.805Z,81.60
2022-09-12T10:20:45.772Z,85.10
2022-09-12T10:23:38.900Z,86.60
2022-09-12T10:26:18.131Z,87.30
2022-09-12T10:28:56.308Z,87.10
2022-09-12T10:31:52.649Z,86.20
2022-09-12T10:34:46.916Z,83.00
2022-09-12T10:37:40.558Z,90.50
2022-09-12T10:40:27.500Z,85.10
2022-09-12T10:43:04.279Z,82.60
2022-09-12T10:45:37.293Z,85.30
2022-09-12T10:48:33.302Z,86.30
2022-09-12T10:51:04.008Z,83.00
2022-09-12T10:53:46.727Z,82.90
2022-09-12T10:56:25.597Z,85.10
2022-09-12T10:59:21.472Z,88.30
2022-09-12T11:02:32.430Z,83.50
2022-09-12T11:05:37.700Z,87.70
2022-09-12T11:08:46.113Z,82.10
2022-09-12T11:11:53.474Z,83.40
2022-09-12T11:14:40.494Z,89.00
2022-09-12T11:17:30.522Z,86.70
2022-09-12T11:20:13.343Z,89.10
2022-09-12T11:23:09.998Z,84.40
2022-09-12T11:26:07.722Z,86.40
2022-09-12T11:29:09.365Z,85.70
2022-09-12T11:32:22.271Z,80.90
2022-09-12T11:35:25.742Z,87.00
2022-09-12T11:38:13.664Z,83.50
2022-09-12T11:41:33.015Z,84.00
2022-09-12T11:44:27.100Z,83.60
2022-09-12T11:46:56.760Z,86.50
2022-09-12T11:49:39.870Z,82.90
2022-09-12T11:52:24.887Z,83.30
2022-09-12T11:55:18.154Z,85.30
2022-09-12T11:57:59.674Z,83.80
2022-09-12T12:00:43.262Z,83.20
2022-09-12T12:03:38.656Z,83.40
2022-09-12T12:06:15.888Z,84.80
2022-09-12T12:08:48.342Z,86.60
2022-09-12T12:11:54.647Z,83.10
2022-09-12T12:14:51.232Z,85.90
2022-09-12T12:17:26.653Z,85.00
2022-09-12T12:20:08.353Z,85.30
2022-09-12T12:22:38.325Z,82.90
2022-09-12T12:25:40.225Z,81.30
2022-09-12T12:28:10.195Z,83.40
2022-09-12T12:30:42.154Z,81.50
2022-09-12T12:33:19.241Z,80.50
2022-09-12T12:36:11.614Z,78.00
2022-09-12T12:38:42.266Z,81.80
2022-09-12T12:41:20.373Z,78.40
2022-09-12T12:43:55.532Z,84.10
2022-09-12T12:46:31.515Z,83.20
2022-09-12T12:49:29.492Z,84.00
2022-09-12T12:52:04.770Z,79.10
2022-09-12T12:54:54.640Z,84.80
2022-09-12T12:57:51.640Z,79.70
2022-09-12T13:00:27.191Z,76.40
2022-09-12T13:03:08.101Z,89.50
2022-09-12T13:05:55.503Z,81.30
2022-09-12T13:08:36.476Z,85.10
2022-09-12T13:11:28.365Z,81.00
2022-09-12T13:14:50.237Z,77.70
2022-09-12T13:17:28.047Z,78.20
2022-09-12T13:20:30.855Z,82.30
2022-09-12T13:23:04.168Z,79.40
2022-09-12T13:25:38.714Z,83.70
2022-09-12T13:28:12.385Z,80.00
2022-09-12T13:30:57.984Z,87.00
2022-09-12T13:34:09.006Z,95.50
2022-09-12T13:37:27.885Z,83.20
2022-09-12T13:40:37.366Z,80.10
2022-09-12T13:43:42.455Z,78.60
2022-09-12T13:46:17.584Z,84.30
2022-09-12T13:48:47.576Z,83.20
2022-09-12T13:51:31.139Z,82.20
2022-09-12T13:54:06.635Z,92.80
2022-09-12T13:56:37.828Z,83.80
2022-09-12T13:59:14.439Z,81.60
2022-09-12T14:01:49.516Z,83.30
2022-09-12T14:04:45.237Z,83.10
2022-09-12T14:07:25.336Z,84.10
2022-09-12T14:10:01.517Z,82.60
2022-09-12T14:12:44.721Z,80.30
2022-09-12T14:15:25.641Z,79.20
2022-09-12T14:18:04.351Z,87.50
2022-09-12T14:20:39.770Z,82.30
2022-09-12T14:23:22.597Z,85.20
2022-09-12T14:25:53.141Z,78.10
2022-09-12T14:28:23.811Z,81.30
2022-09-12T14:31:25.088Z,85.30
2022-09-12T14:34:12.497Z,81.80
2022-09-12T14:36:58.254Z,83.90
2022-09-12T14:39:45.286Z,90.60
2022-09-12T14:42:21.739Z,87.20
2022-09-12T14:45:22.075Z,86.90
2022-09-12T14:47:54.403Z,87.50
2022-09-12T14:50:36.347Z,94.90
2022-09-12T14:53:19.747Z,84.60
2022-09-12T14:56:11.746Z,94.50
2022-09-12T14:58:43.055Z,85.10
2022-09-12T15:01:15.468Z,85.60
2022-09-12T15:03:52.531Z,86.10
2022-09-12T15:06:42.156Z,87.30
2022-09-12T15:09:15.606Z,91.40
2022-09-12T15:11:45.524Z,87.50
2022-09-12T15:14:18.717Z,88.00
2022-09-12T15:16:47.899Z,84.60
2022-09-12T15:19:17.222Z,88.60
2022-09-12T15:21:46.515Z,81.20
2022-09-12T15:24:16.384Z,87.30
2022-09-12T15:26:45.474Z,86.00
2022-09-12T15:29:15.022Z,99.50
2022-09-12T15:31:48.809Z,90.80
2022-09-12T15:34:18.283Z,87.10
2022-09-12T15:36:47.672Z,83.20
2022-09-12T15:39:17.231Z,84.40
2022-09-12T15:41:46.617Z,90.30
2022-09-12T15:44:15.941Z,91.20
2022-09-12T15:46:46.365Z,77.60
2022-09-12T15:49:16.270Z,81.80
2022-09-12T15:51:45.439Z,81.40
2022-09-12T15:54:18.422Z,80.50
2022-09-12T15:56:47.944Z,77.60
2022-09-12T15:59:18.175Z,81.70
2022-09-12T16:01:48.136Z,84.10
2022-09-12T16:04:30.080Z,74.80
2022-09-12T16:06:59.631Z,73.20
2022-09-12T16:09:29.267Z,68.40
2022-09-12T16:11:58.606Z,72.60
2022-09-12T16:14:27.682Z,76.00
2022-09-12T16:16:57.944Z,74.60
2022-09-12T16:19:28.123Z,71.90
2022-09-12T16:21:57.545Z,67.80
2022-09-12T16:24:27.134Z,70.70
2022-09-12T16:27:00.912Z,71.90
2022-09-12T16:29:31.450Z,73.50
2022-09-12T16:32:00.694Z,65.60
2022-09-12T16:34:29.867Z,70.70
2022-09-12T16:36:59.044Z,61.90
2022-09-12T16:39:28.642Z,48.00
2022-09-12T16:41:57.971Z,42.30
2022-09-12T16:44:27.249Z,36.70
2022-09-12T16:46:56.802Z,34.40
2022-09-12T16:49:26.180Z,38.20
2022-09-12T16:51:55.529Z,39.20
2022-09-12T16:54:25.179Z,37.60
2022-09-12T16:56:54.656Z,39.20
2022-09-12T16:59:23.765Z,35.50
2022-09-12T17:01:53.297Z,35.50
2022-09-12T17:04:23.710Z,35.00
2022-09-12T17:06:53.272Z,37.00
2022-09-12T17:09:23.114Z,32.20
2022-09-12T17:11:53.468Z,31.90
2022-09-12T17:14:22.907Z,36.30
2022-09-12T17:16:53.342Z,40.80
2022-09-12T17:19:30.879Z,37.50
2022-09-12T17:22:00.689Z,44.10
2022-09-12T17:24:30.314Z,36.60
2022-09-12T17:27:00.395Z,35.30
2022-09-12T17:29:29.743Z,35.40
2022-09-12T17:31:58.926Z,31.10
2022-09-12T17:34:28.186Z,35.00
2022-09-12T17:36:57.380Z,33.30
2022-09-12T17:39:26.553Z,33.00
2022-09-12T17:41:58.503Z,34.00
2022-09-12T17:44:30.222Z,32.80
2022-09-12T17:46:59.488Z,35.40
2022-09-12T17:49:29.347Z,33.60
2022-09-12T17:51:58.918Z,36.30
2022-09-12T17:54:28.888Z,33.90
2022-09-12T17:56:58.359Z,31.70
2022-09-12T17:59:28.116Z,27.10
2022-09-12T18:02:17.064Z,29.90
2022-09-12T18:04:48.540Z,30.40
2022-09-12T18:07:20.315Z,31.50
2022-09-12T18:09:50.532Z,29.50
2022-09-12T18:12:21.063Z,30.70
2022-09-12T18:14:50.181Z,30.40
2022-09-12T18:17:19.678Z,25.70
2022-09-12T18:19:53.501Z,22.40
2022-09-12T18:22:23.034Z,23.80
2022-09-12T18:24:52.220Z,21.30
2022-09-12T18:27:21.399Z,17.90
2022-09-12T18:30:10.296Z,16.30
2022-09-12T18:32:40.023Z,15.20
2022-09-12T18:35:10.127Z,17.80
2022-09-12T18:37:41.501Z,17.30
2022-09-12T18:40:11.435Z,17.20
2022-09-12T18:42:40.840Z,18.80
2022-09-12T18:45:10.447Z,16.30
2022-09-12T18:47:39.486Z,16.40
2022-09-12T18:50:09.194Z,16.30
2022-09-12T18:52:38.559Z,17.60
2022-09-12T18:55:08.410Z,17.00
2022-09-12T18:57:37.536Z,18.50
2022-09-12T19:00:12.262Z,16.30
2022-09-12T19:02:41.735Z,15.20
2022-09-12T19:05:13.443Z,16.00
2022-09-12T19:07:42.938Z,18.30
2022-09-12T19:10:13.142Z,21.90
2022-09-12T19:12:42.453Z,17.80
2022-09-12T19:15:11.941Z,15.40
2022-09-12T19:17:41.276Z,17.70
2022-09-12T19:20:11.159Z,16.30
2022-09-12T19:22:40.496Z,15.70
2022-09-12T19:25:10.221Z,19.60
2022-09-12T19:27:39.567Z,17.10
2022-09-12T19:30:09.326Z,19.40
2022-09-12T19:32:38.643Z,17.20
2022-09-12T19:35:08.345Z,23.40
2022-09-12T19:37:37.693Z,18.80
2022-09-12T19:40:08.762Z,18.80
2022-09-12T19:42:37.919Z,18.40
2022-09-12T19:45:07.891Z,18.30
2022-09-12T19:47:40.045Z,18.60
2022-09-12T19:50:10.369Z,20.60
2022-09-12T19:52:39.515Z,19.80
2022-09-12T19:55:10.152Z,22.30
2022-09-12T19:57:39.306Z,19.50
2022-09-12T20:00:10.362Z,21.70
2022-09-12T20:02:39.697Z,38.90
2022-09-12T20:05:09.425Z,21.30
2022-09-12T20:07:39.399Z,22.50
2022-09-12T20:10:09.177Z,26.40
2022-09-12T20:12:38.310Z,23.80
2022-09-12T20:15:09.424Z,23.70
2022-09-12T20:17:38.883Z,23.40
2022-09-12T20:20:12.284Z,21.90
2022-09-12T20:22:41.712Z,19.40
2022-09-12T20:25:11.044Z,22.80
2022-09-12T20:27:40.159Z,21.90
2022-09-12T20:30:10.630Z,29.30
2022-09-12T20:32:39.852Z,24.90
2022-09-12T20:35:10.567Z,27.30
2022-09-12T20:37:41.586Z,29.60
2022-09-12T20:40:12.539Z,26.20
2022-09-12T20:42:41.931Z,27.60
2022-09-12T20:45:11.436Z,25.30
2022-09-12T20:47:40.573Z,24.00
2022-09-12T20:50:10.520Z,26.40
2022-09-12T20:52:39.926Z,24.50
2022-09-12T20:55:09.792Z,25.60
2022-09-12T20:57:39.495Z,26.30
2022-09-12T21:00:11.234Z,32.70
2022-09-12T21:02:40.455Z,30.50
2022-09-12T21:05:10.201Z,29.40
2022-09-12T21:07:39.509Z,29.80
2022-09-12T21:10:09.151Z,27.00
2022-09-12T21:12:38.654Z,29.70
2022-09-12T21:15:09.185Z,24.60
2022-09-12T21:17:38.361Z,23.70
2022-09-12T21:20:11.237Z,26.30
2022-09-12T21:22:40.886Z,28.10
2022-09-12T21:25:14.885Z,23.10
2022-09-12T21:27:44.321Z,25.90
2022-09-12T21:30:15.246Z,23.20
2022-09-12T21:32:44.625Z,25.00
2022-09-12T21:35:13.905Z,23.30
2022-09-12T21:37:43.388Z,23.40
2022-09-12T21:40:13.127Z,23.10
2022-09-12T21:42:42.967Z,25.50
2022-09-12T21:45:13.111Z,23.00
2022-09-12T21:47:42.464Z,23.10
2022-09-12T21:50:12.538Z,25.20
2022-09-12T21:52:41.702Z,20.70
2022-09-12T21:55:11.814Z,21.50
2022-09-12T21:57:41.251Z,22.50
2022-09-12T22:00:19.037Z,23.00
2022-09-12T22:02:50.680Z,21.20
2022-09-12T22:05:25.599Z,24.40
2022-09-12T22:07:54.911Z,20.60
2022-09-12T22:10:24.287Z,20.90
2022-09-12T22:12:53.612Z,27.20
2022-09-12T22:15:39.941Z,23.80
2022-09-12T22:18:09.988Z,21.20
2022-09-12T22:20:39.192Z,21.50
2022-09-12T22:23:29.075Z,19.30
2022-09-12T22:25:59.037Z,17.60
2022-09-12T22:28:28.434Z,18.40
2022-09-12T22:30:57.928Z,18.30
2022-09-12T22:33:27.500Z,21.60
2022-09-12T22:35:57.102Z,20.90
2022-09-12T22:38:27.260Z,20.00
2022-09-12T22:40:56.504Z,20.20
2022-09-12T22:43:26.126Z,17.10
2022-09-12T22:45:56.449Z,19.90
2022-09-12T22:48:26.049Z,16.80
2022-09-12T22:50:56.411Z,21.70
2022-09-12T22:53:25.760Z,19.40
2022-09-12T22:55:55.120Z,17.30
2022-09-12T22:58:24.481Z,22.50
2022-09-12T23:00:56.765Z,21.20
2022-09-12T23:03:25.949Z,17.70
2022-09-12T23:05:55.202Z,17.30
2022-09-12T23:08:24.483Z,16.60
2022-09-12T23:11:00.845Z,18.40
2022-09-12T23:13:30.497Z,16.50
2022-09-12T23:16:06.309Z,18.70
2022-09-12T23:18:39.011Z,17.20
2022-09-12T23:21:12.306Z,16.10
2022-09-12T23:23:41.671Z,16.30
2022-09-12T23:26:25.477Z,17.40
2022-09-12T23:28:58.778Z,18.80
2022-09-12T23:31:31.382Z,18.80
2022-09-12T23:34:03.714Z,17.80
2022-09-12T23:36:33.612Z,16.90
2022-09-12T23:39:03.402Z,17.10
2022-09-12T23:41:32.848Z,24.30
2022-09-12T23:44:02.264Z,21.00
2022-09-12T23:46:31.614Z,18.70
2022-09-12T23:49:00.823Z,17.50
2022-09-12T23:51:30.139Z,19.10
2022-09-12T23:53:59.615Z,18.70
2022-09-12T23:56:29.216Z,22.20
2022-09-12T23:58:58.424Z,20.70
